Date,TemperatureHighF,TemperatureAvgF,TemperatureLowF,DewpointHighF,DewpointAvgF,DewpointLowF,HumidityHigh,HumidityAvg,HumidityLow,PressureMaxIn,PressureMinIn,WindSpeedMaxMPH,WindSpeedAvgMPH,GustSpeedMaxMPH,PrecipitationSumIn
2013-8-1,81.9,71.5,66.7,76.9,70.4,66.6,100,97,77,30.13,29.93,8,1,8,1.02
2013-8-2,87.3,74.6,66.2,70.6,64.7,56.7,100,75,43,30.06,29.95,14,2,14,0.00
2013-8-3,81.9,70.9,65.5,70.4,67.8,62.8,100,90,66,30.06,30.00,11,2,11,0.00
2013-8-4,79.0,69.3,60.4,66.4,59.6,54.2,100,74,46,30.12,30.00,22,5,22,0.00
2013-8-5,79.9,68.1,56.1,61.0,55.4,46.0,100,68,36,30.21,30.12,11,2,11,0.00
2013-8-6,78.1,67.4,58.8,67.3,63.4,58.4,100,88,61,30.21,30.14,15,3,15,0.00
2013-8-7,78.1,70.9,65.8,75.0,70.3,65.7,100,98,88,30.21,30.13,14,3,14,0.43
2013-8-8,89.4,76.2,68.5,80.2,73.3,68.4,100,92,63,30.15,30.09,13,2,13,0.07
2013-8-9,85.5,78.2,73.2,80.1,76.0,73.3,100,93,73,30.09,27.69,17,3,17,0.19
2013-8-10,85.8,75.4,66.9,74.7,67.8,60.6,100,79,50,30.18,30.03,11,2,11,0.00
2013-8-11,90.1,74.6,63.3,71.5,66.1,60.3,100,78,45,30.24,30.13,10,2,10,0.59
2013-8-12,88.5,75.8,68.2,75.3,68.7,61.8,100,82,46,30.15,30.03,11,2,11,0.00
2013-8-13,85.5,72.7,64.6,74.1,69.7,60.2,100,91,66,30.03,29.84,12,2,12,3.73
2013-8-14,73.9,65.2,55.4,60.2,54.1,49.6,100,69,47,30.19,29.92,21,6,21,0.00
2013-8-15,79.3,65.1,50.9,60.3,53.9,46.1,100,72,36,30.28,30.19,11,2,12,0.00
2013-8-16,85.8,67.7,53.1,63.3,56.2,47.5,100,72,35,30.31,30.24,8,1,8,0.00
2013-8-17,87.8,70.8,56.3,64.4,58.8,49.5,100,71,32,30.38,30.31,13,2,13,0.00
2013-8-18,70.3,66.7,62.6,68.0,64.3,60.3,100,92,76,30.37,30.27,10,2,10,0.14
2013-8-19,79.0,67.7,59.7,70.9,65.3,59.6,100,92,75,30.28,30.17,8,1,8,0.00
2013-8-20,90.0,73.4,61.7,74.3,66.6,61.7,100,82,45,30.27,30.19,8,1,8,0.00
2013-8-21,92.7,74.8,60.3,76.6,68.2,60.3,100,84,42,30.31,30.17,8,2,13,0.26
2013-8-22,88.3,77.3,70.7,75.6,72.6,69.1,100,87,60,30.19,30.02,13,2,13,0.00
2013-8-23,78.6,71.3,64.2,70.4,66.8,60.1,100,87,56,30.23,30.05,12,2,12,0.00
2013-8-24,85.3,70.4,60.8,63.3,57.3,48.4,100,67,33,30.45,30.23,11,2,11,0.00
2013-8-25,87.4,69.1,54.5,67.1,59.7,52.5,100,77,38,30.52,30.36,10,1,10,0.00
2013-8-26,90.9,73.9,61.3,70.8,64.5,57.4,96,74,46,30.37,30.07,14,2,14,0.00
2013-8-27,88.7,78.2,69.4,75.2,71.2,67.9,100,81,55,30.07,29.99,15,3,15,0.00
2013-8-28,82.4,73.7,69.6,80.0,73.5,69.7,100,99,85,30.02,29.94,7,1,7,0.71
2013-8-29,85.6,73.9,67.8,75.3,71.4,67.9,100,93,63,30.13,29.99,11,2,11,0.00
2013-8-30,91.9,76.4,69.3,76.9,72.5,69.3,100,89,55,30.14,29.98,9,1,9,0.00
2013-8-31,91.4,76.6,69.6,78.5,73.6,69.7,100,91,57,30.00,29.91,17,1,17,0.99